createdAt,value
2017-12-27T00:01:12.569Z,67.20
2017-12-27T00:03:45.835Z,67.30
2017-12-27T00:06:19.100Z,67.60
2017-12-27T00:08:52.411Z,68.00
2017-12-27T00:11:26.454Z,68.50
2017-12-27T00:13:59.637Z,68.40
2017-12-27T00:16:32.769Z,68.40
2017-12-27T00:19:06.097Z,68.50
2017-12-27T00:21:40.124Z,68.60
2017-12-27T00:24:13.400Z,68.60
2017-12-27T00:26:46.666Z,68.70
2017-12-27T00:32:15.518Z,68.40
2017-12-27T00:34:43.070Z,68.70
2017-12-27T00:37:10.572Z,69.00
2017-12-27T00:39:38.062Z,69.40
2017-12-27T00:42:06.375Z,69.80
2017-12-27T00:44:33.872Z,69.70
2017-12-27T00:47:01.388Z,69.90
2017-12-27T00:49:28.908Z,69.80
2017-12-27T00:51:57.205Z,69.50
2017-12-27T00:54:24.701Z,69.50
2017-12-27T00:56:52.338Z,69.30
2017-12-27T00:59:19.867Z,69.20
2017-12-27T01:01:48.124Z,69.40
2017-12-27T01:04:15.656Z,69.30
2017-12-27T01:06:43.151Z,69.50
2017-12-27T01:09:11.468Z,69.40
2017-12-27T01:11:38.963Z,69.30
2017-12-27T01:14:06.452Z,69.30
2017-12-27T01:16:34.739Z,69.30
2017-12-27T01:19:02.265Z,69.20
2017-12-27T01:21:29.786Z,69.20
2017-12-27T01:23:57.284Z,69.00
2017-12-27T01:26:24.801Z,68.80
2017-12-27T01:28:52.314Z,68.80
2017-12-27T01:31:19.818Z,68.70
2017-12-27T01:33:47.335Z,68.80
2017-12-27T01:36:14.885Z,68.80
2017-12-27T01:38:43.160Z,69.40
2017-12-27T01:41:10.733Z,69.40
2017-12-27T01:43:38.240Z,69.10
2017-12-27T01:46:05.738Z,69.00
2017-12-27T01:48:34.020Z,69.10
2017-12-27T01:51:01.512Z,69.20
2017-12-27T01:53:29.035Z,69.00
2017-12-27T01:55:56.604Z,69.30
2017-12-27T01:58:24.112Z,70.20
2017-12-27T02:00:51.624Z,69.50
2017-12-27T02:03:19.148Z,69.30
2017-12-27T02:05:47.399Z,69.20
2017-12-27T02:08:14.910Z,69.10
2017-12-27T02:10:42.459Z,69.10
2017-12-27T02:13:09.973Z,69.10
2017-12-27T02:15:37.523Z,69.00
2017-12-27T02:18:05.036Z,69.10
2017-12-27T02:20:32.524Z,69.40
2017-12-27T02:23:00.025Z,69.40
2017-12-27T02:25:28.323Z,69.50
2017-12-27T02:27:55.812Z,69.40
2017-12-27T02:30:23.326Z,69.40
2017-12-27T02:32:51.590Z,69.40
2017-12-27T02:35:19.843Z,69.50
2017-12-27T02:37:47.366Z,69.50
2017-12-27T02:40:25.399Z,69.60
2017-12-27T02:42:52.955Z,69.60
2017-12-27T02:45:20.461Z,69.70
2017-12-27T02:47:47.935Z,69.70
2017-12-27T02:50:15.440Z,69.70
2017-12-27T02:52:42.944Z,69.60
2017-12-27T02:55:10.464Z,69.40
2017-12-27T02:57:38.739Z,69.50
2017-12-27T03:00:06.239Z,70.30
2017-12-27T03:02:33.879Z,69.40
2017-12-27T03:05:01.382Z,69.40
2017-12-27T03:07:28.900Z,69.50
2017-12-27T03:09:56.410Z,69.20
2017-12-27T03:12:23.931Z,70.20
2017-12-27T03:14:51.421Z,69.30
2017-12-27T03:17:18.923Z,70.00
2017-12-27T03:19:46.435Z,69.20
2017-12-27T03:22:13.921Z,69.30
2017-12-27T03:24:42.212Z,69.20
2017-12-27T03:27:09.710Z,69.20
2017-12-27T03:29:37.203Z,69.30
2017-12-27T03:32:05.478Z,69.60
2017-12-27T03:34:32.964Z,69.30
2017-12-27T03:37:00.475Z,69.00
2017-12-27T03:39:27.953Z,69.40
2017-12-27T03:41:56.239Z,69.40
2017-12-27T03:44:24.498Z,69.20
2017-12-27T03:46:51.996Z,69.10
2017-12-27T03:49:19.527Z,69.80
2017-12-27T03:51:47.784Z,68.40
2017-12-27T03:54:15.295Z,68.40
2017-12-27T03:56:42.783Z,68.70
2017-12-27T03:59:10.297Z,68.70
2017-12-27T04:01:37.824Z,68.40
2017-12-27T04:04:06.074Z,68.60
2017-12-27T04:06:33.602Z,68.60
2017-12-27T04:09:01.175Z,68.70
2017-12-27T04:11:28.703Z,68.70
2017-12-27T04:13:56.203Z,68.60
2017-12-27T04:16:23.683Z,68.80
2017-12-27T04:18:51.195Z,68.70
2017-12-27T04:21:18.695Z,68.50
2017-12-27T04:23:47.005Z,68.40
2017-12-27T04:26:14.491Z,68.40
2017-12-27T04:28:41.982Z,68.00
2017-12-27T04:31:09.496Z,67.90
2017-12-27T04:33:36.988Z,68.90
2017-12-27T04:36:04.512Z,68.20
2017-12-27T04:38:32.008Z,68.20
2017-12-27T04:40:59.487Z,68.40
2017-12-27T04:43:27.771Z,68.10
2017-12-27T04:45:55.255Z,68.00
2017-12-27T04:48:22.768Z,68.10
2017-12-27T04:50:51.035Z,68.30
2017-12-27T04:53:18.549Z,68.30
2017-12-27T04:55:46.056Z,68.20
2017-12-27T04:58:14.332Z,68.10
2017-12-27T05:00:42.587Z,68.10
2017-12-27T05:03:10.099Z,68.10
2017-12-27T05:05:37.605Z,68.10
2017-12-27T05:08:05.131Z,67.80
2017-12-27T05:10:32.622Z,68.20
2017-12-27T05:13:00.133Z,68.20
2017-12-27T05:15:27.640Z,67.50
2017-12-27T05:17:55.141Z,68.20
2017-12-27T05:20:22.665Z,68.10
2017-12-27T05:22:50.933Z,68.20
2017-12-27T05:25:18.422Z,68.00
2017-12-27T05:27:45.935Z,68.40
2017-12-27T05:30:13.439Z,68.50
2017-12-27T05:32:40.952Z,68.70
2017-12-27T05:35:08.450Z,68.80
2017-12-27T05:37:35.958Z,69.00
2017-12-27T05:40:03.477Z,69.30
2017-12-27T05:42:30.972Z,69.20
2017-12-27T05:44:58.490Z,68.90
2017-12-27T05:47:25.996Z,68.90
2017-12-27T05:49:53.481Z,68.60
2017-12-27T05:52:21.777Z,68.20
2017-12-27T05:54:49.262Z,68.20
2017-12-27T05:57:16.773Z,68.10
2017-12-27T05:59:45.019Z,68.60
2017-12-27T06:02:12.529Z,68.60
2017-12-27T06:04:40.045Z,68.50
2017-12-27T06:07:08.308Z,68.20
2017-12-27T06:09:35.814Z,68.10
2017-12-27T06:12:03.300Z,68.30
2017-12-27T06:14:30.828Z,68.40
2017-12-27T06:16:58.323Z,68.50
2017-12-27T06:19:25.815Z,68.40
2017-12-27T06:21:54.120Z,68.00
2017-12-27T06:24:21.596Z,68.00
2017-12-27T06:26:49.080Z,67.80
2017-12-27T06:29:16.605Z,67.50
2017-12-27T06:31:44.120Z,67.70
2017-12-27T06:34:12.410Z,67.90
2017-12-27T06:36:39.907Z,67.90
2017-12-27T06:39:07.423Z,67.20
2017-12-27T06:41:34.930Z,67.30
2017-12-27T06:44:02.424Z,67.20
2017-12-27T06:46:30.698Z,67.30
2017-12-27T06:48:58.952Z,67.20
2017-12-27T06:51:26.480Z,67.10
2017-12-27T06:53:53.979Z,66.90
2017-12-27T06:56:22.229Z,67.70
2017-12-27T06:58:49.747Z,67.60
2017-12-27T07:01:17.239Z,68.00
2017-12-27T07:03:44.731Z,68.40
2017-12-27T07:06:13.037Z,68.30
2017-12-27T07:08:40.522Z,68.30
2017-12-27T07:11:08.015Z,67.50
2017-12-27T07:13:36.308Z,66.80
2017-12-27T07:16:04.584Z,66.40
2017-12-27T07:18:32.153Z,66.40
2017-12-27T07:20:59.658Z,65.90
2017-12-27T07:23:27.183Z,65.90
2017-12-27T07:25:54.667Z,66.20
2017-12-27T07:28:22.208Z,66.80
2017-12-27T07:30:49.726Z,66.70
2017-12-27T07:33:17.992Z,67.80
2017-12-27T07:35:46.292Z,68.50
2017-12-27T07:38:13.782Z,68.40
2017-12-27T07:40:41.287Z,68.70
2017-12-27T07:43:09.560Z,69.10
2017-12-27T07:45:37.864Z,69.20
2017-12-27T07:48:05.440Z,69.20
2017-12-27T07:50:32.940Z,69.20
2017-12-27T07:53:00.420Z,69.40
2017-12-27T07:55:27.938Z,69.90
2017-12-27T07:57:55.441Z,69.70
2017-12-27T08:00:22.960Z,69.70
2017-12-27T08:02:50.448Z,69.50
2017-12-27T08:05:18.732Z,70.00
2017-12-27T08:07:46.229Z,69.00
2017-12-27T08:10:13.745Z,69.20
2017-12-27T08:12:42.018Z,68.60
2017-12-27T08:15:09.522Z,68.60
2017-12-27T08:17:37.029Z,68.40
2017-12-27T08:20:04.513Z,68.50
2017-12-27T08:22:32.043Z,68.70
2017-12-27T08:24:59.560Z,68.90
2017-12-27T08:27:27.052Z,69.50
2017-12-27T08:29:55.345Z,68.10
2017-12-27T08:32:22.872Z,68.10
2017-12-27T08:34:51.172Z,68.40
2017-12-27T08:37:18.671Z,68.40
2017-12-27T08:39:46.256Z,67.50
2017-12-27T08:42:13.749Z,68.90
2017-12-27T08:44:41.227Z,68.30
2017-12-27T08:47:08.731Z,65.60
2017-12-27T08:49:36.987Z,62.60
2017-12-27T08:52:04.572Z,62.50
2017-12-27T08:54:32.855Z,62.40
2017-12-27T08:57:01.151Z,62.10
2017-12-27T08:59:28.639Z,62.10
2017-12-27T09:01:56.132Z,62.00
2017-12-27T09:04:23.640Z,62.30
2017-12-27T09:06:51.129Z,62.50
2017-12-27T09:09:18.657Z,62.50
2017-12-27T09:11:46.147Z,62.50
2017-12-27T09:14:13.643Z,62.60
2017-12-27T09:16:41.159Z,62.40
2017-12-27T09:19:08.660Z,62.50
2017-12-27T09:21:36.170Z,61.60
2017-12-27T09:24:03.713Z,61.40
2017-12-27T09:26:31.229Z,60.80
2017-12-27T09:28:59.477Z,60.70
2017-12-27T09:31:27.724Z,60.10
2017-12-27T09:33:55.228Z,60.10
2017-12-27T09:36:23.487Z,60.40
2017-12-27T09:38:51.008Z,60.40
2017-12-27T09:41:18.500Z,60.60
2017-12-27T09:43:46.789Z,60.80
2017-12-27T09:46:15.045Z,61.20
2017-12-27T09:48:42.555Z,61.10
2017-12-27T09:51:10.067Z,61.20
2017-12-27T09:53:37.550Z,61.60
2017-12-27T09:56:05.061Z,61.50
2017-12-27T09:58:32.556Z,61.80
2017-12-27T10:01:00.850Z,62.00
2017-12-27T10:03:28.344Z,62.00
2017-12-27T10:05:55.840Z,61.90
2017-12-27T10:08:24.138Z,62.90
2017-12-27T10:10:51.660Z,62.90
2017-12-27T10:13:19.173Z,63.50
2017-12-27T10:15:46.757Z,63.10
2017-12-27T10:18:14.247Z,64.20
2017-12-27T10:20:42.534Z,65.80
2017-12-27T10:23:10.044Z,65.70
2017-12-27T10:25:37.544Z,66.40
2017-12-27T10:28:05.855Z,66.80
2017-12-27T10:30:33.359Z,66.70
2017-12-27T10:33:01.627Z,65.50
2017-12-27T10:35:29.145Z,65.60
2017-12-27T10:37:56.643Z,65.00
2017-12-27T10:40:24.131Z,65.00
2017-12-27T10:42:51.650Z,63.80
2017-12-27T10:45:19.143Z,62.70
2017-12-27T10:47:46.659Z,62.80
2017-12-27T10:50:14.153Z,62.30
2017-12-27T10:52:41.677Z,61.60
2017-12-27T10:55:09.212Z,61.40
2017-12-27T10:57:36.737Z,61.50
2017-12-27T11:00:04.233Z,61.90
2017-12-27T11:02:31.743Z,61.80
2017-12-27T11:04:59.272Z,62.20
2017-12-27T11:07:26.763Z,61.30
2017-12-27T11:09:54.300Z,61.40
2017-12-27T11:12:22.553Z,60.60
2017-12-27T11:14:50.042Z,60.60
2017-12-27T11:17:17.578Z,61.20
2017-12-27T11:19:45.078Z,60.70
2017-12-27T11:22:12.603Z,61.20
2017-12-27T11:24:40.874Z,60.50
2017-12-27T11:27:09.164Z,60.70
2017-12-27T11:29:37.427Z,59.80
2017-12-27T11:32:05.686Z,59.00
2017-12-27T11:34:33.216Z,58.90
2017-12-27T11:37:00.728Z,59.20
2017-12-27T11:39:28.236Z,58.90
2017-12-27T11:41:55.774Z,59.40
2017-12-27T11:44:23.308Z,59.60
2017-12-27T11:46:50.790Z,59.60
2017-12-27T11:49:18.304Z,59.50
2017-12-27T11:51:46.595Z,57.70
2017-12-27T11:54:14.115Z,57.60
2017-12-27T11:56:41.653Z,57.60
2017-12-27T11:59:09.152Z,57.40
2017-12-27T12:01:37.471Z,57.90
2017-12-27T12:04:04.967Z,57.90
2017-12-27T12:06:32.470Z,58.00
2017-12-27T12:09:00.008Z,57.70
2017-12-27T12:11:28.281Z,56.90
2017-12-27T12:13:55.792Z,56.90
2017-12-27T12:16:23.316Z,56.80
2017-12-27T12:18:50.808Z,56.50
2017-12-27T12:21:18.444Z,56.20
2017-12-27T12:23:45.940Z,56.20
2017-12-27T12:26:13.473Z,56.00
2017-12-27T12:28:40.977Z,56.60
2017-12-27T12:31:08.473Z,56.50
2017-12-27T12:33:36.872Z,56.50
2017-12-27T12:36:04.368Z,56.40
2017-12-27T12:38:32.663Z,56.30
2017-12-27T12:41:00.166Z,56.20
2017-12-27T12:43:27.697Z,56.30
2017-12-27T12:45:55.194Z,56.30
2017-12-27T12:48:22.709Z,56.50
2017-12-27T12:50:50.208Z,56.60
2017-12-27T12:53:17.749Z,56.60
2017-12-27T12:55:45.243Z,56.60
2017-12-27T12:58:12.741Z,56.70
2017-12-27T13:00:40.268Z,56.90
2017-12-27T13:03:08.533Z,57.30
2017-12-27T13:05:36.837Z,57.40
2017-12-27T13:08:04.346Z,57.30
2017-12-27T13:10:31.856Z,57.40
2017-12-27T13:12:59.384Z,57.70
2017-12-27T13:15:27.651Z,58.10
2017-12-27T13:17:55.169Z,58.10
2017-12-27T13:20:22.732Z,58.90
2017-12-27T13:22:50.224Z,58.40
2017-12-27T13:25:17.763Z,58.70
2017-12-27T13:27:45.256Z,58.70
2017-12-27T13:30:13.569Z,59.60
2017-12-27T13:32:41.057Z,59.50
2017-12-27T13:35:08.541Z,60.20
2017-12-27T13:37:36.827Z,60.90
2017-12-27T13:40:05.115Z,61.40
2017-12-27T13:42:32.641Z,61.40
2017-12-27T13:45:00.181Z,62.10
2017-12-27T13:47:27.701Z,62.20
2017-12-27T13:49:55.207Z,63.00
2017-12-27T13:52:22.720Z,63.60
2017-12-27T13:54:50.215Z,64.30
2017-12-27T13:57:17.737Z,65.20
2017-12-27T13:59:45.227Z,66.20
2017-12-27T14:02:12.740Z,66.50
2017-12-27T14:04:40.228Z,67.20
2017-12-27T14:07:07.749Z,68.20
2017-12-27T14:09:35.256Z,67.40
2017-12-27T14:12:02.744Z,67.60
2017-12-27T14:14:31.016Z,67.50
2017-12-27T14:16:59.284Z,67.60
2017-12-27T14:19:27.587Z,67.90
2017-12-27T14:21:55.133Z,67.90
2017-12-27T14:24:23.428Z,68.00
2017-12-27T14:26:50.937Z,68.00
2017-12-27T14:29:18.453Z,67.90
2017-12-27T14:31:45.988Z,67.70
2017-12-27T14:34:13.497Z,67.90
2017-12-27T14:36:41.100Z,67.90
2017-12-27T14:39:09.364Z,67.90
2017-12-27T14:41:37.640Z,68.30
2017-12-27T14:44:05.893Z,68.20
2017-12-27T14:46:33.427Z,68.10
2017-12-27T14:49:00.939Z,68.40
2017-12-27T14:51:28.436Z,68.70
2017-12-27T14:53:55.983Z,68.80
2017-12-27T14:56:23.512Z,69.00
2017-12-27T14:58:51.782Z,69.50
2017-12-27T15:01:20.082Z,69.60
2017-12-27T15:03:47.588Z,69.60
2017-12-27T15:06:15.129Z,69.80
2017-12-27T15:08:42.635Z,70.20
2017-12-27T15:11:10.139Z,70.40
2017-12-27T15:13:37.664Z,70.50
2017-12-27T15:16:05.159Z,70.70
2017-12-27T15:18:32.708Z,70.90
2017-12-27T15:21:00.219Z,70.90
2017-12-27T15:23:28.494Z,71.20
2017-12-27T15:25:56.784Z,71.40
2017-12-27T15:28:24.292Z,71.30
2017-12-27T15:30:52.548Z,71.40
2017-12-27T15:33:20.055Z,71.50
2017-12-27T15:35:48.335Z,71.60
2017-12-27T15:38:16.612Z,71.50
2017-12-27T15:40:44.883Z,71.90
2017-12-27T15:43:13.165Z,72.50
2017-12-27T15:45:40.725Z,72.40
2017-12-27T15:48:08.248Z,73.10
2017-12-27T15:50:35.775Z,73.50
2017-12-27T15:53:03.289Z,73.70
2017-12-27T15:55:31.581Z,74.50
2017-12-27T15:57:59.087Z,74.50
2017-12-27T16:00:26.600Z,74.50
2017-12-27T16:02:54.127Z,74.70
2017-12-27T16:05:22.424Z,74.90
2017-12-27T16:07:50.684Z,75.20
2017-12-27T16:10:18.939Z,75.40
2017-12-27T16:12:46.470Z,75.40
2017-12-27T16:15:13.958Z,75.70
2017-12-27T16:17:41.500Z,76.00
2017-12-27T16:20:08.991Z,76.20
2017-12-27T16:22:37.301Z,76.40
2017-12-27T16:25:04.821Z,76.30
2017-12-27T16:27:33.129Z,76.40
2017-12-27T16:30:00.656Z,76.40
2017-12-27T16:32:28.911Z,77.20
2017-12-27T16:34:56.449Z,76.20
2017-12-27T16:37:23.941Z,76.40
2017-12-27T16:39:52.195Z,76.30
2017-12-27T16:42:19.727Z,76.30
2017-12-27T16:44:47.235Z,76.40
2017-12-27T16:47:15.648Z,76.40
2017-12-27T16:49:43.134Z,76.20
2017-12-27T16:52:10.657Z,76.30
2017-12-27T16:54:38.168Z,76.20
2017-12-27T16:57:05.663Z,76.20
2017-12-27T16:59:33.212Z,76.20
2017-12-27T17:02:00.776Z,76.30
2017-12-27T17:04:28.289Z,76.40
2017-12-27T17:06:55.822Z,76.50
2017-12-27T17:09:23.330Z,76.40
2017-12-27T17:11:51.733Z,76.30
2017-12-27T17:14:19.260Z,76.20
2017-12-27T17:16:46.765Z,76.10
2017-12-27T17:19:14.288Z,75.50
2017-12-27T17:21:42.557Z,76.10
2017-12-27T17:24:10.865Z,75.90
2017-12-27T17:26:38.370Z,75.90
2017-12-27T17:29:05.905Z,75.90
2017-12-27T17:31:33.403Z,75.70
2017-12-27T17:34:00.907Z,75.60
2017-12-27T17:36:28.429Z,75.60
2017-12-27T17:38:56.729Z,75.30
2017-12-27T17:41:24.275Z,75.10
2017-12-27T17:43:51.840Z,75.10
2017-12-27T17:46:19.355Z,75.10
2017-12-27T17:48:47.684Z,75.20
2017-12-27T17:51:15.187Z,75.20
2017-12-27T17:53:42.731Z,75.10
2017-12-27T17:56:10.235Z,75.10
2017-12-27T17:58:37.727Z,75.30
2017-12-27T18:01:05.263Z,75.30
2017-12-27T18:03:32.766Z,75.50
2017-12-27T18:06:00.340Z,75.80
2017-12-27T18:08:28.613Z,76.20
2017-12-27T18:10:56.121Z,76.20
2017-12-27T18:13:23.714Z,76.30
2017-12-27T18:15:51.215Z,76.60
2017-12-27T18:18:19.501Z,77.80
2017-12-27T18:20:47.006Z,77.00
2017-12-27T18:23:14.546Z,77.30
2017-12-27T18:25:42.085Z,77.20
2017-12-27T18:28:09.583Z,77.10
2017-12-27T18:30:37.117Z,77.20
2017-12-27T18:33:04.614Z,77.30
2017-12-27T18:35:32.919Z,77.80
2017-12-27T18:38:00.460Z,77.80
2017-12-27T18:40:28.807Z,78.20
2017-12-27T18:42:56.441Z,78.20
2017-12-27T18:45:23.955Z,78.40
2017-12-27T18:47:52.210Z,78.30
2017-12-27T18:50:19.755Z,78.20
2017-12-27T18:52:47.257Z,78.10
2017-12-27T18:55:14.765Z,77.80
2017-12-27T18:57:42.308Z,77.50
2017-12-27T19:00:09.844Z,77.30
2017-12-27T19:02:37.373Z,77.20
2017-12-27T19:05:05.628Z,76.90
2017-12-27T19:07:33.168Z,76.80
2017-12-27T19:10:00.676Z,76.60
2017-12-27T19:12:28.197Z,76.40
2017-12-27T19:14:55.753Z,76.20
2017-12-27T19:17:23.309Z,76.10
2017-12-27T19:19:50.825Z,76.10
2017-12-27T19:22:18.327Z,76.10
2017-12-27T19:24:45.867Z,76.20
2017-12-27T19:27:13.378Z,76.10
2017-12-27T19:29:40.901Z,76.10
2017-12-27T19:32:08.418Z,76.10
2017-12-27T19:34:35.942Z,76.20
2017-12-27T19:37:04.265Z,76.00
2017-12-27T19:39:31.779Z,76.00
2017-12-27T19:42:00.080Z,75.90
2017-12-27T19:44:27.575Z,75.80
2017-12-27T19:46:55.122Z,75.70
2017-12-27T19:49:22.657Z,75.70
2017-12-27T19:51:50.183Z,75.60
2017-12-27T19:54:18.509Z,75.60
2017-12-27T19:56:46.000Z,75.60
2017-12-27T19:59:13.539Z,75.50
2017-12-27T20:01:41.105Z,76.30
2017-12-27T20:04:08.653Z,75.40
2017-12-27T20:06:36.186Z,75.10
2017-12-27T20:09:03.892Z,75.10
2017-12-27T20:11:31.520Z,74.80
2017-12-27T20:13:59.107Z,75.90
2017-12-27T20:16:26.679Z,74.80
2017-12-27T20:18:55.020Z,74.70
2017-12-27T20:21:22.553Z,74.60
2017-12-27T20:23:50.092Z,74.80
2017-12-27T20:26:17.593Z,75.00
2017-12-27T20:28:45.203Z,75.00
2017-12-27T20:31:12.710Z,74.80
2017-12-27T20:33:40.241Z,74.90
2017-12-27T20:36:07.863Z,75.10
2017-12-27T20:38:36.328Z,74.90
2017-12-27T20:41:03.851Z,75.30
2017-12-27T20:43:31.380Z,75.40
2017-12-27T20:45:58.931Z,75.30
2017-12-27T20:48:26.560Z,75.20
2017-12-27T20:50:54.194Z,74.90
2017-12-27T20:53:21.715Z,74.60
2017-12-27T20:55:49.293Z,74.40
2017-12-27T20:58:16.866Z,74.60
2017-12-27T21:00:44.392Z,74.70
2017-12-27T21:03:11.947Z,74.80
2017-12-27T21:05:39.462Z,74.70
2017-12-27T21:08:06.970Z,74.70
2017-12-27T21:10:34.584Z,74.70
2017-12-27T21:13:02.106Z,74.80
2017-12-27T21:15:29.627Z,74.80
2017-12-27T21:17:57.908Z,75.30
2017-12-27T21:20:26.234Z,75.50
2017-12-27T21:22:53.786Z,75.40
2017-12-27T21:25:21.320Z,75.70
2017-12-27T21:27:48.836Z,76.20
2017-12-27T21:30:16.351Z,76.50
2017-12-27T21:32:43.884Z,76.70
2017-12-27T21:35:11.440Z,76.30
2017-12-27T21:37:38.994Z,75.70
2017-12-27T21:40:06.510Z,76.00
2017-12-27T21:42:34.023Z,76.10
2017-12-27T21:45:01.610Z,76.60
2017-12-27T21:47:34.854Z,76.60
2017-12-27T21:50:03.160Z,77.40
2017-12-27T21:52:30.672Z,77.40
2017-12-27T21:54:58.176Z,77.50
2017-12-27T21:57:25.707Z,77.80
2017-12-27T21:59:59.749Z,78.30
2017-12-27T22:02:27.331Z,78.30
2017-12-27T22:04:54.861Z,78.30
2017-12-27T22:07:22.402Z,78.40
2017-12-27T22:09:49.924Z,78.60
2017-12-27T22:12:18.215Z,78.70
2017-12-27T22:14:46.510Z,78.90
2017-12-27T22:17:14.042Z,78.80
2017-12-27T22:19:42.418Z,78.10
2017-12-27T22:22:10.690Z,75.40
2017-12-27T22:24:38.192Z,75.40
2017-12-27T22:27:05.730Z,74.40
2017-12-27T22:29:33.239Z,72.30
2017-12-27T22:32:00.782Z,71.20
2017-12-27T22:34:28.275Z,70.10
2017-12-27T22:36:55.782Z,67.20
2017-12-27T22:39:23.310Z,66.50
2017-12-27T22:41:51.589Z,66.40
2017-12-27T22:44:19.905Z,66.50
2017-12-27T22:46:47.408Z,66.50
2017-12-27T22:49:15.681Z,66.20
2017-12-27T22:51:43.957Z,66.20
2017-12-27T22:54:12.247Z,67.50
2017-12-27T22:56:39.794Z,66.70
2017-12-27T22:59:08.064Z,66.40
2017-12-27T23:01:36.321Z,65.30
2017-12-27T23:04:03.870Z,65.20
2017-12-27T23:06:31.372Z,66.20
2017-12-27T23:08:58.911Z,64.50
2017-12-27T23:11:26.428Z,64.50
2017-12-27T23:13:53.952Z,63.60
2017-12-27T23:16:21.475Z,63.00
2017-12-27T23:18:49.032Z,63.70
2017-12-27T23:21:16.557Z,63.40
2017-12-27T23:23:44.063Z,63.80
2017-12-27T23:26:12.359Z,63.60
2017-12-27T23:28:39.875Z,63.60
2017-12-27T23:31:07.392Z,62.60
2017-12-27T23:33:34.959Z,61.20
2017-12-27T23:36:02.466Z,61.80
2017-12-27T23:38:30.781Z,62.60
2017-12-27T23:40:58.286Z,61.80
2017-12-27T23:43:26.565Z,62.50
2017-12-27T23:45:54.229Z,62.30
2017-12-27T23:48:22.536Z,63.20
2017-12-27T23:50:50.065Z,62.90
2017-12-27T23:53:17.562Z,62.80
2017-12-27T23:55:45.052Z,63.10
2017-12-27T23:58:12.635Z,63.10
